sensor_id;sensor_type;location;lat;lon;timestamp;temperature;humidity
10459;DHT22;5277;48.722;8.736;2022-11-20T00:01:20;6.00;99.90
10459;DHT22;5277;48.722;8.736;2022-11-20T00:03:46;6.00;99.90
10459;DHT22;5277;48.722;8.736;2022-11-20T00:06:15;6.00;99.90
10459;DHT22;5277;48.722;8.736;2022-11-20T00:08:41;6.00;99.90
10459;DHT22;5277;48.722;8.736;2022-11-20T00:11:15;6.00;99.90
10459;DHT22;5277;48.722;8.736;2022-11-20T00:13:46;5.90;99.90
10459;DHT22;5277;48.722;8.736;2022-11-20T00:16:14;5.90;99.90
10459;DHT22;5277;48.722;8.736;2022-11-20T00:18:40;5.90;99.90
10459;DHT22;5277;48.722;8.736;2022-11-20T00:21:11;5.90;99.90
10459;DHT22;5277;48.722;8.736;2022-11-20T00:23:37;5.90;99.90
10459;DHT22;5277;48.722;8.736;2022-11-20T00:26:07;5.90;99.90
10459;DHT22;5277;48.722;8.736;2022-11-20T00:28:33;5.90;99.90
10459;DHT22;5277;48.722;8.736;2022-11-20T00:33:28;5.80;99.90
10459;DHT22;5277;48.722;8.736;2022-11-20T00:36:15;5.70;99.90
10459;DHT22;5277;48.722;8.736;2022-11-20T00:38:41;5.70;99.90
10459;DHT22;5277;48.722;8.736;2022-11-20T00:41:09;5.60;99.90
10459;DHT22;5277;48.722;8.736;2022-11-20T00:43:37;5.60;99.90
10459;DHT22;5277;48.722;8.736;2022-11-20T00:46:19;5.50;99.90
10459;DHT22;5277;48.722;8.736;2022-11-20T00:48:45;5.50;99.90
10459;DHT22;5277;48.722;8.736;2022-11-20T00:51:13;5.50;99.90
10459;DHT22;5277;48.722;8.736;2022-11-20T00:53:39;5.40;99.90
10459;DHT22;5277;48.722;8.736;2022-11-20T00:56:07;5.40;99.90
10459;DHT22;5277;48.722;8.736;2022-11-20T00:58:37;5.40;99.90
10459;DHT22;5277;48.722;8.736;2022-11-20T01:01:14;5.40;99.90
10459;DHT22;5277;48.722;8.736;2022-11-20T01:03:42;5.30;99.90
10459;DHT22;5277;48.722;8.736;2022-11-20T01:06:13;5.30;99.90
10459;DHT22;5277;48.722;8.736;2022-11-20T01:08:40;5.30;99.90
10459;DHT22;5277;48.722;8.736;2022-11-20T01:11:11;5.30;99.90
10459;DHT22;5277;48.722;8.736;2022-11-20T01:13:37;5.20;99.90
10459;DHT22;5277;48.722;8.736;2022-11-20T01:18:39;5.10;99.90
10459;DHT22;5277;48.722;8.736;2022-11-20T01:21:14;5.10;99.90
10459;DHT22;5277;48.722;8.736;2022-11-20T01:23:41;5.10;99.90
10459;DHT22;5277;48.722;8.736;2022-11-20T01:26:11;5.00;99.90
10459;DHT22;5277;48.722;8.736;2022-11-20T01:28:38;5.00;99.90
10459;DHT22;5277;48.722;8.736;2022-11-20T01:31:18;5.00;99.90
10459;DHT22;5277;48.722;8.736;2022-11-20T01:33:46;5.00;99.90
10459;DHT22;5277;48.722;8.736;2022-11-20T01:36:13;5.00;99.90
10459;DHT22;5277;48.722;8.736;2022-11-20T01:38:39;5.00;99.90
10459;DHT22;5277;48.722;8.736;2022-11-20T01:41:06;5.00;99.90
10459;DHT22;5277;48.722;8.736;2022-11-20T01:43:32;4.90;99.90
10459;DHT22;5277;48.722;8.736;2022-11-20T01:46:17;4.90;99.90
10459;DHT22;5277;48.722;8.736;2022-11-20T01:54:05;4.70;99.90
10459;DHT22;5277;48.722;8.736;2022-11-20T01:56:38;4.80;99.90
10459;DHT22;5277;48.722;8.736;2022-11-20T01:59:05;4.70;99.90
10459;DHT22;5277;48.722;8.736;2022-11-20T02:01:33;4.70;99.90
10459;DHT22;5277;48.722;8.736;2022-11-20T02:04:00;4.70;99.90
10459;DHT22;5277;48.722;8.736;2022-11-20T02:07:12;4.70;99.90
10459;DHT22;5277;48.722;8.736;2022-11-20T02:09:14;4.70;99.90
10459;DHT22;5277;48.722;8.736;2022-11-20T02:11:39;4.70;99.90
10459;DHT22;5277;48.722;8.736;2022-11-20T02:14:05;4.80;99.90
10459;DHT22;5277;48.722;8.736;2022-11-20T02:16:36;4.80;99.90
10459;DHT22;5277;48.722;8.736;2022-11-20T02:19:05;4.80;99.90
10459;DHT22;5277;48.722;8.736;2022-11-20T02:24:32;4.80;99.90
10459;DHT22;5277;48.722;8.736;2022-11-20T02:27:07;4.70;99.90
10459;DHT22;5277;48.722;8.736;2022-11-20T02:29:50;4.80;99.90
10459;DHT22;5277;48.722;8.736;2022-11-20T02:32:22;4.80;99.90
10459;DHT22;5277;48.722;8.736;2022-11-20T02:34:48;4.70;99.90
10459;DHT22;5277;48.722;8.736;2022-11-20T02:37:14;4.70;99.90
10459;DHT22;5277;48.722;8.736;2022-11-20T02:39:41;4.70;99.90
10459;DHT22;5277;48.722;8.736;2022-11-20T02:42:08;4.80;99.90
10459;DHT22;5277;48.722;8.736;2022-11-20T02:44:38;4.80;99.90
10459;DHT22;5277;48.722;8.736;2022-11-20T02:47:03;4.80;99.90
10459;DHT22;5277;48.722;8.736;2022-11-20T02:49:29;4.80;99.90
10459;DHT22;5277;48.722;8.736;2022-11-20T02:51:55;4.80;99.90
10459;DHT22;5277;48.722;8.736;2022-11-20T02:54:20;4.80;99.90
10459;DHT22;5277;48.722;8.736;2022-11-20T02:56:46;4.80;99.90
10459;DHT22;5277;48.722;8.736;2022-11-20T02:59:11;4.80;99.90
10459;DHT22;5277;48.722;8.736;2022-11-20T03:01:37;4.80;99.90
10459;DHT22;5277;48.722;8.736;2022-11-20T03:04:03;4.70;99.90
10459;DHT22;5277;48.722;8.736;2022-11-20T03:06:28;4.80;99.90
10459;DHT22;5277;48.722;8.736;2022-11-20T03:08:54;4.80;99.90
10459;DHT22;5277;48.722;8.736;2022-11-20T03:11:20;4.80;99.90
10459;DHT22;5277;48.722;8.736;2022-11-20T03:13:45;4.80;99.90
10459;DHT22;5277;48.722;8.736;2022-11-20T03:16:16;4.90;99.90
10459;DHT22;5277;48.722;8.736;2022-11-20T03:18:43;4.90;99.90
10459;DHT22;5277;48.722;8.736;2022-11-20T03:21:10;4.90;99.90
10459;DHT22;5277;48.722;8.736;2022-11-20T03:23:36;4.80;99.90
10459;DHT22;5277;48.722;8.736;2022-11-20T03:28:45;4.80;99.90
10459;DHT22;5277;48.722;8.736;2022-11-20T03:31:13;4.90;99.90
10459;DHT22;5277;48.722;8.736;2022-11-20T03:33:40;4.90;99.90
10459;DHT22;5277;48.722;8.736;2022-11-20T03:36:08;5.00;99.90
10459;DHT22;5277;48.722;8.736;2022-11-20T03:38:34;5.00;99.90
10459;DHT22;5277;48.722;8.736;2022-11-20T03:41:01;4.90;99.90
10459;DHT22;5277;48.722;8.736;2022-11-20T03:43:27;5.00;99.90
10459;DHT22;5277;48.722;8.736;2022-11-20T03:46:08;5.00;99.90
10459;DHT22;5277;48.722;8.736;2022-11-20T03:48:34;5.10;99.90
10459;DHT22;5277;48.722;8.736;2022-11-20T03:51:11;5.10;99.90
10459;DHT22;5277;48.722;8.736;2022-11-20T03:53:39;5.10;99.90
10459;DHT22;5277;48.722;8.736;2022-11-20T03:56:06;5.10;99.90
10459;DHT22;5277;48.722;8.736;2022-11-20T03:58:33;5.10;99.90
10459;DHT22;5277;48.722;8.736;2022-11-20T04:01:11;5.20;99.90
10459;DHT22;5277;48.722;8.736;2022-11-20T04:03:38;5.20;99.90
10459;DHT22;5277;48.722;8.736;2022-11-20T04:06:18;5.20;99.90
10459;DHT22;5277;48.722;8.736;2022-11-20T04:08:44;5.20;99.90
10459;DHT22;5277;48.722;8.736;2022-11-20T04:13:41;5.20;99.90
10459;DHT22;5277;48.722;8.736;2022-11-20T04:16:08;5.20;99.90
10459;DHT22;5277;48.722;8.736;2022-11-20T04:18:35;5.10;99.90
10459;DHT22;5277;48.722;8.736;2022-11-20T04:21:00;5.10;99.90
10459;DHT22;5277;48.722;8.736;2022-11-20T04:23:26;5.10;99.90
10459;DHT22;5277;48.722;8.736;2022-11-20T04:25:52;5.10;99.90
10459;DHT22;5277;48.722;8.736;2022-11-20T04:28:18;5.10;99.90
10459;DHT22;5277;48.722;8.736;2022-11-20T04:30:43;5.10;99.90
10459;DHT22;5277;48.722;8.736;2022-11-20T04:33:09;5.10;99.90
10459;DHT22;5277;48.722;8.736;2022-11-20T04:35:35;5.10;99.90
10459;DHT22;5277;48.722;8.736;2022-11-20T04:38:01;5.10;99.90
10459;DHT22;5277;48.722;8.736;2022-11-20T04:40:30;5.10;99.90
10459;DHT22;5277;48.722;8.736;2022-11-20T04:42:56;5.10;99.90
10459;DHT22;5277;48.722;8.736;2022-11-20T04:45:25;5.10;99.90
10459;DHT22;5277;48.722;8.736;2022-11-20T04:47:50;5.20;99.90
10459;DHT22;5277;48.722;8.736;2022-11-20T04:50:16;5.20;99.90
10459;DHT22;5277;48.722;8.736;2022-11-20T04:52:41;5.30;99.90
10459;DHT22;5277;48.722;8.736;2022-11-20T04:55:07;5.30;99.90
10459;DHT22;5277;48.722;8.736;2022-11-20T04:57:33;5.40;99.90
10459;DHT22;5277;48.722;8.736;2022-11-20T04:59:58;5.40;99.90
10459;DHT22;5277;48.722;8.736;2022-11-20T05:02:24;5.30;99.90
10459;DHT22;5277;48.722;8.736;2022-11-20T05:04:49;5.30;99.90
10459;DHT22;5277;48.722;8.736;2022-11-20T05:07:15;5.30;99.90
10459;DHT22;5277;48.722;8.736;2022-11-20T05:09:41;5.20;99.90
10459;DHT22;5277;48.722;8.736;2022-11-20T05:12:09;5.30;99.90
10459;DHT22;5277;48.722;8.736;2022-11-20T05:14:35;5.30;99.90
10459;DHT22;5277;48.722;8.736;2022-11-20T05:17:01;5.30;99.90
10459;DHT22;5277;48.722;8.736;2022-11-20T05:19:26;5.30;99.90
10459;DHT22;5277;48.722;8.736;2022-11-20T05:21:52;5.30;99.90
10459;DHT22;5277;48.722;8.736;2022-11-20T05:24:17;5.40;99.90
10459;DHT22;5277;48.722;8.736;2022-11-20T05:26:43;5.40;99.90
10459;DHT22;5277;48.722;8.736;2022-11-20T05:29:12;5.50;99.90
10459;DHT22;5277;48.722;8.736;2022-11-20T05:31:39;5.50;99.90
10459;DHT22;5277;48.722;8.736;2022-11-20T05:34:06;5.60;99.90
10459;DHT22;5277;48.722;8.736;2022-11-20T05:36:31;5.60;99.90
10459;DHT22;5277;48.722;8.736;2022-11-20T05:38:57;5.60;99.90
10459;DHT22;5277;48.722;8.736;2022-11-20T05:41:23;5.60;99.90
10459;DHT22;5277;48.722;8.736;2022-11-20T05:43:49;5.70;99.90
10459;DHT22;5277;48.722;8.736;2022-11-20T05:46:16;5.70;99.90
10459;DHT22;5277;48.722;8.736;2022-11-20T05:48:43;5.60;99.90
10459;DHT22;5277;48.722;8.736;2022-11-20T05:51:13;5.70;99.90
10459;DHT22;5277;48.722;8.736;2022-11-20T05:53:39;5.70;99.90
10459;DHT22;5277;48.722;8.736;2022-11-20T05:56:09;5.70;99.90
10459;DHT22;5277;48.722;8.736;2022-11-20T05:58:35;5.70;99.90
10459;DHT22;5277;48.722;8.736;2022-11-20T06:01:10;5.70;99.90
10459;DHT22;5277;48.722;8.736;2022-11-20T06:03:39;5.80;99.90
10459;DHT22;5277;48.722;8.736;2022-11-20T06:06:06;5.80;99.90
10459;DHT22;5277;48.722;8.736;2022-11-20T06:08:33;5.80;99.90
10459;DHT22;5277;48.722;8.736;2022-11-20T06:11:07;5.80;99.90
10459;DHT22;5277;48.722;8.736;2022-11-20T06:13:33;5.90;99.90
10459;DHT22;5277;48.722;8.736;2022-11-20T06:15:59;5.80;99.90
10459;DHT22;5277;48.722;8.736;2022-11-20T06:18:28;5.90;99.90
10459;DHT22;5277;48.722;8.736;2022-11-20T06:21:12;5.90;99.90
10459;DHT22;5277;48.722;8.736;2022-11-20T06:23:42;5.90;99.90
10459;DHT22;5277;48.722;8.736;2022-11-20T06:26:10;5.90;99.90
10459;DHT22;5277;48.722;8.736;2022-11-20T06:28:36;5.90;99.90
10459;DHT22;5277;48.722;8.736;2022-11-20T06:31:03;5.90;99.90
10459;DHT22;5277;48.722;8.736;2022-11-20T06:33:29;5.90;99.90
10459;DHT22;5277;48.722;8.736;2022-11-20T06:35:58;5.90;99.90
10459;DHT22;5277;48.722;8.736;2022-11-20T06:38:28;5.90;99.90
10459;DHT22;5277;48.722;8.736;2022-11-20T06:40:54;5.90;99.90
10459;DHT22;5277;48.722;8.736;2022-11-20T06:43:20;5.90;99.90
10459;DHT22;5277;48.722;8.736;2022-11-20T06:45:46;5.90;99.90
10459;DHT22;5277;48.722;8.736;2022-11-20T06:48:12;5.90;99.90
10459;DHT22;5277;48.722;8.736;2022-11-20T06:50:37;6.00;99.90
10459;DHT22;5277;48.722;8.736;2022-11-20T06:53:04;6.00;99.90
10459;DHT22;5277;48.722;8.736;2022-11-20T06:55:30;6.00;99.90
10459;DHT22;5277;48.722;8.736;2022-11-20T06:57:56;6.00;99.90
10459;DHT22;5277;48.722;8.736;2022-11-20T07:00:22;6.00;99.90
10459;DHT22;5277;48.722;8.736;2022-11-20T07:02:47;6.00;99.90
10459;DHT22;5277;48.722;8.736;2022-11-20T07:05:13;6.00;99.90
10459;DHT22;5277;48.722;8.736;2022-11-20T07:07:39;6.10;99.90
10459;DHT22;5277;48.722;8.736;2022-11-20T07:10:05;6.00;99.90
10459;DHT22;5277;48.722;8.736;2022-11-20T07:12:30;6.10;99.90
10459;DHT22;5277;48.722;8.736;2022-11-20T07:14:56;6.10;99.90
10459;DHT22;5277;48.722;8.736;2022-11-20T07:17:22;6.20;99.90
10459;DHT22;5277;48.722;8.736;2022-11-20T07:19:47;6.20;99.90
10459;DHT22;5277;48.722;8.736;2022-11-20T07:22:13;6.20;99.90
10459;DHT22;5277;48.722;8.736;2022-11-20T07:24:38;6.30;99.90
10459;DHT22;5277;48.722;8.736;2022-11-20T07:27:04;6.30;99.90
10459;DHT22;5277;48.722;8.736;2022-11-20T07:29:30;6.30;99.90
10459;DHT22;5277;48.722;8.736;2022-11-20T07:31:55;6.40;99.90
10459;DHT22;5277;48.722;8.736;2022-11-20T07:34:22;6.40;99.90
10459;DHT22;5277;48.722;8.736;2022-11-20T07:36:47;6.50;99.90
10459;DHT22;5277;48.722;8.736;2022-11-20T07:39:13;6.50;99.90
10459;DHT22;5277;48.722;8.736;2022-11-20T07:41:39;6.50;99.90
10459;DHT22;5277;48.722;8.736;2022-11-20T07:44:04;6.50;99.90
10459;DHT22;5277;48.722;8.736;2022-11-20T07:46:30;6.50;99.90
10459;DHT22;5277;48.722;8.736;2022-11-20T07:48:56;6.60;99.90
10459;DHT22;5277;48.722;8.736;2022-11-20T07:51:21;6.60;99.90
10459;DHT22;5277;48.722;8.736;2022-11-20T07:53:47;6.60;99.90
10459;DHT22;5277;48.722;8.736;2022-11-20T07:56:13;6.70;99.90
10459;DHT22;5277;48.722;8.736;2022-11-20T07:58:39;6.70;99.90
10459;DHT22;5277;48.722;8.736;2022-11-20T08:01:08;6.80;99.90
10459;DHT22;5277;48.722;8.736;2022-11-20T08:03:34;6.70;99.90
10459;DHT22;5277;48.722;8.736;2022-11-20T08:06:00;6.70;99.90
10459;DHT22;5277;48.722;8.736;2022-11-20T08:08:27;6.80;99.90
10459;DHT22;5277;48.722;8.736;2022-11-20T08:10:53;6.80;99.90
10459;DHT22;5277;48.722;8.736;2022-11-20T08:13:38;6.90;99.90
10459;DHT22;5277;48.722;8.736;2022-11-20T08:16:22;6.90;99.90
10459;DHT22;5277;48.722;8.736;2022-11-20T08:18:48;6.90;99.90
10459;DHT22;5277;48.722;8.736;2022-11-20T08:21:14;6.90;99.90
10459;DHT22;5277;48.722;8.736;2022-11-20T08:23:40;7.00;99.90
10459;DHT22;5277;48.722;8.736;2022-11-20T08:26:06;7.10;99.90
10459;DHT22;5277;48.722;8.736;2022-11-20T08:28:31;7.10;99.90
10459;DHT22;5277;48.722;8.736;2022-11-20T08:31:00;7.10;99.90
10459;DHT22;5277;48.722;8.736;2022-11-20T08:33:26;7.20;99.90
10459;DHT22;5277;48.722;8.736;2022-11-20T08:35:52;7.30;99.90
10459;DHT22;5277;48.722;8.736;2022-11-20T08:38:17;7.30;99.90
10459;DHT22;5277;48.722;8.736;2022-11-20T08:40:43;7.40;99.90
10459;DHT22;5277;48.722;8.736;2022-11-20T08:43:31;7.40;99.90
10459;DHT22;5277;48.722;8.736;2022-11-20T08:45:57;7.40;99.90
10459;DHT22;5277;48.722;8.736;2022-11-20T08:48:23;7.50;99.90
10459;DHT22;5277;48.722;8.736;2022-11-20T08:50:48;7.50;99.90
10459;DHT22;5277;48.722;8.736;2022-11-20T08:53:14;7.60;99.90
10459;DHT22;5277;48.722;8.736;2022-11-20T08:55:39;7.60;99.90
10459;DHT22;5277;48.722;8.736;2022-11-20T08:58:06;7.70;99.90
10459;DHT22;5277;48.722;8.736;2022-11-20T09:00:32;7.70;99.90
10459;DHT22;5277;48.722;8.736;2022-11-20T09:02:58;7.70;99.90
10459;DHT22;5277;48.722;8.736;2022-11-20T09:05:26;7.70;99.90
10459;DHT22;5277;48.722;8.736;2022-11-20T09:07:52;7.70;99.90
10459;DHT22;5277;48.722;8.736;2022-11-20T09:10:17;7.70;99.90
10459;DHT22;5277;48.722;8.736;2022-11-20T09:12:43;7.80;99.90
10459;DHT22;5277;48.722;8.736;2022-11-20T09:15:09;7.70;99.90
10459;DHT22;5277;48.722;8.736;2022-11-20T09:17:34;7.70;99.90
10459;DHT22;5277;48.722;8.736;2022-11-20T09:20:00;7.80;99.90
10459;DHT22;5277;48.722;8.736;2022-11-20T09:22:25;7.70;99.90
10459;DHT22;5277;48.722;8.736;2022-11-20T09:24:51;7.80;99.90
10459;DHT22;5277;48.722;8.736;2022-11-20T09:27:16;7.80;99.90
10459;DHT22;5277;48.722;8.736;2022-11-20T09:29:48;7.80;99.90
10459;DHT22;5277;48.722;8.736;2022-11-20T09:32:14;7.80;99.90
10459;DHT22;5277;48.722;8.736;2022-11-20T09:34:39;7.80;99.90
10459;DHT22;5277;48.722;8.736;2022-11-20T09:37:05;7.80;99.90
10459;DHT22;5277;48.722;8.736;2022-11-20T09:39:30;7.90;99.90
10459;DHT22;5277;48.722;8.736;2022-11-20T09:42:09;7.90;99.90
10459;DHT22;5277;48.722;8.736;2022-11-20T09:47:44;8.00;99.90
10459;DHT22;5277;48.722;8.736;2022-11-20T09:50:25;8.00;99.90
10459;DHT22;5277;48.722;8.736;2022-11-20T09:55:55;8.20;99.90
10459;DHT22;5277;48.722;8.736;2022-11-20T09:58:42;8.30;99.90
10459;DHT22;5277;48.722;8.736;2022-11-20T10:01:17;8.30;99.90
10459;DHT22;5277;48.722;8.736;2022-11-20T10:03:58;8.40;99.90
10459;DHT22;5277;48.722;8.736;2022-11-20T10:06:42;8.40;99.90
10459;DHT22;5277;48.722;8.736;2022-11-20T10:09:30;8.50;99.90
10459;DHT22;5277;48.722;8.736;2022-11-20T10:15:24;8.50;99.90
10459;DHT22;5277;48.722;8.736;2022-11-20T10:20:48;8.50;99.90
10459;DHT22;5277;48.722;8.736;2022-11-20T10:26:01;8.50;99.90
10459;DHT22;5277;48.722;8.736;2022-11-20T10:31:11;8.60;99.90
10459;DHT22;5277;48.722;8.736;2022-11-20T10:33:45;8.60;99.90
10459;DHT22;5277;48.722;8.736;2022-11-20T10:36:23;8.60;99.90
10459;DHT22;5277;48.722;8.736;2022-11-20T10:39:06;8.70;99.90
10459;DHT22;5277;48.722;8.736;2022-11-20T10:41:40;8.70;99.90
10459;DHT22;5277;48.722;8.736;2022-11-20T10:44:22;8.80;99.90
10459;DHT22;5277;48.722;8.736;2022-11-20T10:47:17;8.80;99.90
10459;DHT22;5277;48.722;8.736;2022-11-20T10:49:49;8.80;99.90
10459;DHT22;5277;48.722;8.736;2022-11-20T10:55:29;8.80;99.90
10459;DHT22;5277;48.722;8.736;2022-11-20T11:03:38;8.90;99.90
10459;DHT22;5277;48.722;8.736;2022-11-20T11:08:40;9.00;99.90
10459;DHT22;5277;48.722;8.736;2022-11-20T11:11:30;9.00;99.90
10459;DHT22;5277;48.722;8.736;2022-11-20T11:14:10;9.10;99.90
10459;DHT22;5277;48.722;8.736;2022-11-20T11:16:54;9.10;99.90
10459;DHT22;5277;48.722;8.736;2022-11-20T11:19:20;9.10;99.90
10459;DHT22;5277;48.722;8.736;2022-11-20T11:21:54;9.10;99.90
10459;DHT22;5277;48.722;8.736;2022-11-20T11:24:25;9.00;99.90
10459;DHT22;5277;48.722;8.736;2022-11-20T11:27:01;9.00;99.90
10459;DHT22;5277;48.722;8.736;2022-11-20T11:29:32;9.00;99.90
10459;DHT22;5277;48.722;8.736;2022-11-20T11:32:12;9.00;99.90
10459;DHT22;5277;48.722;8.736;2022-11-20T11:34:38;9.00;99.90
10459;DHT22;5277;48.722;8.736;2022-11-20T11:37:05;9.00;99.90
10459;DHT22;5277;48.722;8.736;2022-11-20T11:39:42;9.00;99.90
10459;DHT22;5277;48.722;8.736;2022-11-20T11:42:16;9.00;99.90
10459;DHT22;5277;48.722;8.736;2022-11-20T11:44:47;9.00;99.90
10459;DHT22;5277;48.722;8.736;2022-11-20T11:53:13;9.00;99.90
10459;DHT22;5277;48.722;8.736;2022-11-20T11:56:07;9.00;99.90
10459;DHT22;5277;48.722;8.736;2022-11-20T11:58:47;9.00;99.90
10459;DHT22;5277;48.722;8.736;2022-11-20T12:01:46;8.90;99.90
10459;DHT22;5277;48.722;8.736;2022-11-20T12:04:45;8.90;99.90
10459;DHT22;5277;48.722;8.736;2022-11-20T12:07:20;8.80;99.90
10459;DHT22;5277;48.722;8.736;2022-11-20T12:09:52;8.80;99.90
10459;DHT22;5277;48.722;8.736;2022-11-20T12:12:30;8.80;99.90
10459;DHT22;5277;48.722;8.736;2022-11-20T12:14:57;8.70;99.90
10459;DHT22;5277;48.722;8.736;2022-11-20T12:17:24;8.70;99.90
10459;DHT22;5277;48.722;8.736;2022-11-20T12:19:49;8.70;99.90
10459;DHT22;5277;48.722;8.736;2022-11-20T12:25:27;8.60;99.90
10459;DHT22;5277;48.722;8.736;2022-11-20T12:30:56;8.60;99.90
10459;DHT22;5277;48.722;8.736;2022-11-20T12:33:41;8.60;99.90
10459;DHT22;5277;48.722;8.736;2022-11-20T12:36:27;8.50;99.90
10459;DHT22;5277;48.722;8.736;2022-11-20T12:42:25;8.50;99.90
10459;DHT22;5277;48.722;8.736;2022-11-20T13:00:20;8.80;99.90
10459;DHT22;5277;48.722;8.736;2022-11-20T13:02:58;8.80;99.90
10459;DHT22;5277;48.722;8.736;2022-11-20T13:05:55;8.90;99.90
10459;DHT22;5277;48.722;8.736;2022-11-20T13:08:35;8.90;99.90
10459;DHT22;5277;48.722;8.736;2022-11-20T13:11:16;8.90;99.90
10459;DHT22;5277;48.722;8.736;2022-11-20T13:16:54;8.70;99.90
10459;DHT22;5277;48.722;8.736;2022-11-20T13:19:24;8.60;99.90
10459;DHT22;5277;48.722;8.736;2022-11-20T13:21:50;8.50;99.90
10459;DHT22;5277;48.722;8.736;2022-11-20T13:29:34;8.40;99.90
10459;DHT22;5277;48.722;8.736;2022-11-20T13:34:29;8.50;99.90
10459;DHT22;5277;48.722;8.736;2022-11-20T13:36:56;8.50;99.90
10459;DHT22;5277;48.722;8.736;2022-11-20T13:39:31;8.50;99.90
10459;DHT22;5277;48.722;8.736;2022-11-20T13:41:59;8.50;99.90
10459;DHT22;5277;48.722;8.736;2022-11-20T13:47:01;8.40;99.90
10459;DHT22;5277;48.722;8.736;2022-11-20T13:49:40;8.30;99.90
10459;DHT22;5277;48.722;8.736;2022-11-20T13:54:57;8.30;99.90
10459;DHT22;5277;48.722;8.736;2022-11-20T13:57:38;8.30;99.90
10459;DHT22;5277;48.722;8.736;2022-11-20T14:00:15;8.30;99.90
10459;DHT22;5277;48.722;8.736;2022-11-20T14:02:43;8.30;99.90
10459;DHT22;5277;48.722;8.736;2022-11-20T14:05:20;8.40;99.90
10459;DHT22;5277;48.722;8.736;2022-11-20T14:07:48;8.40;99.90
10459;DHT22;5277;48.722;8.736;2022-11-20T14:10:26;8.40;99.90
10459;DHT22;5277;48.722;8.736;2022-11-20T14:12:52;8.50;99.90
10459;DHT22;5277;48.722;8.736;2022-11-20T14:15:30;8.50;99.90
10459;DHT22;5277;48.722;8.736;2022-11-20T14:17:56;8.50;99.90
10459;DHT22;5277;48.722;8.736;2022-11-20T14:20:28;8.50;99.90
10459;DHT22;5277;48.722;8.736;2022-11-20T14:22:56;8.50;99.90
10459;DHT22;5277;48.722;8.736;2022-11-20T14:25:24;8.40;99.90
10459;DHT22;5277;48.722;8.736;2022-11-20T14:27:57;8.40;99.90
10459;DHT22;5277;48.722;8.736;2022-11-20T14:30:25;8.40;99.90
10459;DHT22;5277;48.722;8.736;2022-11-20T14:32:54;8.30;99.90
10459;DHT22;5277;48.722;8.736;2022-11-20T14:35:25;8.20;99.90
10459;DHT22;5277;48.722;8.736;2022-11-20T14:37:51;8.30;99.90
10459;DHT22;5277;48.722;8.736;2022-11-20T14:42:49;8.40;99.90
10459;DHT22;5277;48.722;8.736;2022-11-20T14:45:15;8.40;99.90
10459;DHT22;5277;48.722;8.736;2022-11-20T14:47:42;8.30;99.90
10459;DHT22;5277;48.722;8.736;2022-11-20T14:50:19;8.30;99.90
10459;DHT22;5277;48.722;8.736;2022-11-20T14:52:53;8.20;99.90
10459;DHT22;5277;48.722;8.736;2022-11-20T14:55:34;8.10;99.90
10459;DHT22;5277;48.722;8.736;2022-11-20T14:58:05;8.10;99.90
10459;DHT22;5277;48.722;8.736;2022-11-20T15:00:32;8.20;99.90
10459;DHT22;5277;48.722;8.736;2022-11-20T15:02:58;8.20;99.90
10459;DHT22;5277;48.722;8.736;2022-11-20T15:05:43;8.10;99.90
10459;DHT22;5277;48.722;8.736;2022-11-20T15:08:13;8.20;99.90
10459;DHT22;5277;48.722;8.736;2022-11-20T15:10:46;8.00;99.90
10459;DHT22;5277;48.722;8.736;2022-11-20T15:13:20;8.00;99.90
10459;DHT22;5277;48.722;8.736;2022-11-20T15:15:51;8.00;99.90
10459;DHT22;5277;48.722;8.736;2022-11-20T15:18:27;7.90;99.90
10459;DHT22;5277;48.722;8.736;2022-11-20T15:20:55;7.90;99.90
10459;DHT22;5277;48.722;8.736;2022-11-20T15:23:21;7.80;99.90
10459;DHT22;5277;48.722;8.736;2022-11-20T15:25:48;7.80;99.90
10459;DHT22;5277;48.722;8.736;2022-11-20T15:28:25;7.80;99.90
10459;DHT22;5277;48.722;8.736;2022-11-20T15:30:52;7.80;99.90
10459;DHT22;5277;48.722;8.736;2022-11-20T15:33:18;7.70;99.90
10459;DHT22;5277;48.722;8.736;2022-11-20T15:35:43;7.70;99.90
10459;DHT22;5277;48.722;8.736;2022-11-20T15:38:09;7.70;99.90
10459;DHT22;5277;48.722;8.736;2022-11-20T15:40:35;7.60;99.90
10459;DHT22;5277;48.722;8.736;2022-11-20T15:43:01;7.60;99.90
10459;DHT22;5277;48.722;8.736;2022-11-20T15:45:40;7.50;99.90
10459;DHT22;5277;48.722;8.736;2022-11-20T15:48:12;7.60;99.90
10459;DHT22;5277;48.722;8.736;2022-11-20T15:50:46;7.50;99.90
10459;DHT22;5277;48.722;8.736;2022-11-20T15:53:14;7.40;99.90
10459;DHT22;5277;48.722;8.736;2022-11-20T15:55:43;7.40;99.90
10459;DHT22;5277;48.722;8.736;2022-11-20T15:58:09;7.40;99.90
10459;DHT22;5277;48.722;8.736;2022-11-20T16:00:34;7.50;99.90
10459;DHT22;5277;48.722;8.736;2022-11-20T16:03:00;7.30;99.90
10459;DHT22;5277;48.722;8.736;2022-11-20T16:05:29;7.30;99.90
10459;DHT22;5277;48.722;8.736;2022-11-20T16:07:55;7.40;99.90
10459;DHT22;5277;48.722;8.736;2022-11-20T16:10:21;7.50;99.90
10459;DHT22;5277;48.722;8.736;2022-11-20T16:12:46;7.40;99.90
10459;DHT22;5277;48.722;8.736;2022-11-20T16:15:31;7.50;99.90
10459;DHT22;5277;48.722;8.736;2022-11-20T16:18:13;7.50;99.90
10459;DHT22;5277;48.722;8.736;2022-11-20T16:20:40;7.50;99.90
10459;DHT22;5277;48.722;8.736;2022-11-20T16:23:06;7.40;99.90
10459;DHT22;5277;48.722;8.736;2022-11-20T16:25:32;7.40;99.90
10459;DHT22;5277;48.722;8.736;2022-11-20T16:28:00;7.30;99.90
10459;DHT22;5277;48.722;8.736;2022-11-20T16:30:26;7.40;99.90
10459;DHT22;5277;48.722;8.736;2022-11-20T16:32:52;7.40;99.90
10459;DHT22;5277;48.722;8.736;2022-11-20T16:35:18;7.40;99.90
10459;DHT22;5277;48.722;8.736;2022-11-20T16:37:43;7.40;99.90
10459;DHT22;5277;48.722;8.736;2022-11-20T16:40:10;7.30;99.90
10459;DHT22;5277;48.722;8.736;2022-11-20T16:42:36;7.40;99.90
10459;DHT22;5277;48.722;8.736;2022-11-20T16:45:08;7.40;99.90
10459;DHT22;5277;48.722;8.736;2022-11-20T16:47:36;7.30;99.90
10459;DHT22;5277;48.722;8.736;2022-11-20T16:50:03;7.30;99.90
10459;DHT22;5277;48.722;8.736;2022-11-20T16:52:29;7.30;99.90
10459;DHT22;5277;48.722;8.736;2022-11-20T16:54:55;7.30;99.90
10459;DHT22;5277;48.722;8.736;2022-11-20T16:57:21;7.30;99.90
10459;DHT22;5277;48.722;8.736;2022-11-20T16:59:47;7.30;99.90
10459;DHT22;5277;48.722;8.736;2022-11-20T17:02:13;7.30;99.90
10459;DHT22;5277;48.722;8.736;2022-11-20T17:04:38;7.30;99.90
10459;DHT22;5277;48.722;8.736;2022-11-20T17:07:18;7.20;99.90
10459;DHT22;5277;48.722;8.736;2022-11-20T17:09:44;7.20;99.90
10459;DHT22;5277;48.722;8.736;2022-11-20T17:12:09;7.20;99.90
10459;DHT22;5277;48.722;8.736;2022-11-20T17:14:35;7.10;99.90
10459;DHT22;5277;48.722;8.736;2022-11-20T17:17:00;7.10;99.90
10459;DHT22;5277;48.722;8.736;2022-11-20T17:19:26;7.10;99.90
10459;DHT22;5277;48.722;8.736;2022-11-20T17:21:52;7.00;99.90
10459;DHT22;5277;48.722;8.736;2022-11-20T17:24:17;7.00;99.90
10459;DHT22;5277;48.722;8.736;2022-11-20T17:26:43;7.00;99.90
10459;DHT22;5277;48.722;8.736;2022-11-20T17:29:11;7.10;99.90
10459;DHT22;5277;48.722;8.736;2022-11-20T17:31:38;7.10;99.90
10459;DHT22;5277;48.722;8.736;2022-11-20T17:34:05;7.10;99.90
10459;DHT22;5277;48.722;8.736;2022-11-20T17:36:31;7.20;99.90
10459;DHT22;5277;48.722;8.736;2022-11-20T17:38:57;7.20;99.90
10459;DHT22;5277;48.722;8.736;2022-11-20T17:41:26;7.20;99.90
10459;DHT22;5277;48.722;8.736;2022-11-20T17:43:53;7.20;99.90
10459;DHT22;5277;48.722;8.736;2022-11-20T17:46:34;7.30;99.90
10459;DHT22;5277;48.722;8.736;2022-11-20T17:49:00;7.20;99.90
10459;DHT22;5277;48.722;8.736;2022-11-20T17:51:28;7.20;99.90
10459;DHT22;5277;48.722;8.736;2022-11-20T17:54:00;7.20;99.90